Time;durP1;ratioP1;P1;durP2;ratioP2;P2;SDS_P1;SDS_P2;PMS_P1;PMS_P2;Temp;Humidity;BMP_temperature;BMP_pressure;BME280_temperature;BME280_humidity;BME280_pressure;Samples;Min_cycle;Max_cycle;Signal;HPM_P1;HPM_P2
2022/06/21 00:00:37;;;;;;;5.22;1.90;;;;;;;10.94;100.00;98315.50;15274659;19;20037;-55
2022/06/21 00:05:45;;;;;;;4.47;1.60;;;;;;;10.92;100.00;98317.53;15279952;19;20018;-50
2022/06/21 00:10:54;;;;;;;4.60;1.75;;;;;;;10.87;100.00;98312.63;15282102;19;20373;-52
2022/06/21 00:16:02;;;;;;;4.88;1.77;;;;;;;10.85;100.00;98311.94;15279254;19;20029;-54
2022/06/21 00:21:12;;;;;;;5.60;1.70;;;;;;;10.83;100.00;98318.53;15273781;19;20015;-56
2022/06/21 00:26:21;;;;;;;2.92;1.60;;;;;;;10.80;100.00;98322.41;15273121;19;20452;-53
2022/06/21 00:31:29;;;;;;;6.78;1.90;;;;;;;10.79;100.00;98326.94;15271633;19;20034;-50
2022/06/21 00:36:38;;;;;;;3.20;1.50;;;;;;;10.77;100.00;98336.19;15275456;19;20018;-55
2022/06/21 00:41:50;;;;;;;5.55;1.40;;;;;;;10.71;100.00;98329.63;15282613;19;20038;-57
2022/06/21 00:47:04;;;;;;;3.35;1.42;;;;;;;10.73;100.00;98335.69;15275350;19;20468;-57
2022/06/21 00:52:16;;;;;;;3.97;1.40;;;;;;;10.72;100.00;98323.22;15274899;19;20011;-58
2022/06/21 00:57:28;;;;;;;3.22;1.60;;;;;;;10.67;100.00;98316.63;15278236;19;20014;-55
2022/06/21 01:02:38;;;;;;;4.28;1.60;;;;;;;10.59;100.00;98323.69;15277564;19;20069;-55
2022/06/21 01:07:44;;;;;;;3.50;1.40;;;;;;;10.53;100.00;98324.34;15272833;19;20025;-56
2022/06/21 01:12:56;;;;;;;5.22;1.20;;;;;;;10.50;100.00;98331.91;15279898;19;20014;-53
2022/06/21 01:18:07;;;;;;;4.07;1.55;;;;;;;10.39;100.00;98333.03;15278529;19;20010;-57
2022/06/21 01:23:21;;;;;;;3.83;1.42;;;;;;;10.31;100.00;98328.41;15276762;19;20385;-56
2022/06/21 01:28:29;;;;;;;3.28;1.50;;;;;;;10.23;100.00;98328.41;15267936;19;20041;-58
2022/06/21 01:33:38;;;;;;;5.38;1.73;;;;;;;10.14;100.00;98336.44;15276043;19;20376;-54
2022/06/21 01:38:48;;;;;;;5.25;1.73;;;;;;;10.03;100.00;98342.09;15269056;19;20034;-57
2022/06/21 01:43:58;;;;;;;4.22;1.80;;;;;;;9.90;100.00;98347.91;15273121;19;20014;-57
2022/06/21 01:49:08;;;;;;;4.18;1.70;;;;;;;9.86;100.00;98339.31;15275377;19;20010;-59
2022/06/21 01:54:19;;;;;;;4.05;1.60;;;;;;;9.83;100.00;98334.25;15276276;19;20022;-56
2022/06/21 01:59:33;;;;;;;4.20;1.63;;;;;;;9.75;100.00;98342.28;15270783;19;20014;-52
2022/06/21 02:04:43;;;;;;;5.55;1.60;;;;;;;9.72;100.00;98329.13;15276078;19;20011;-54
2022/06/21 02:10:06;;;;;;;3.30;1.60;;;;;;;9.70;100.00;98339.22;15282569;19;20389;-59
2022/06/21 02:15:23;;;;;;;2.88;1.50;;;;;;;9.70;100.00;98349.97;15288344;19;20014;-53
2022/06/21 02:20:38;;;;;;;2.70;1.45;;;;;;;9.63;100.00;98344.38;15287538;19;20018;-55
2022/06/21 02:25:45;;;;;;;3.53;1.45;;;;;;;9.57;100.00;98350.38;15285234;19;21016;-54
2022/06/21 02:30:55;;;;;;;4.60;1.60;;;;;;;9.48;100.00;98346.78;15278835;19;20029;-53
2022/06/21 02:36:03;;;;;;;5.38;1.90;;;;;;;9.35;100.00;98347.19;15282525;19;20025;-57
2022/06/21 02:41:12;;;;;;;4.30;1.90;;;;;;;9.26;100.00;98342.75;15285751;19;20015;-56
2022/06/21 02:46:26;;;;;;;3.90;1.70;;;;;;;9.20;100.00;98349.59;15284715;19;20042;-57
2022/06/21 02:51:37;;;;;;;4.38;1.70;;;;;;;9.17;100.00;98359.81;15289729;19;20034;-57
2022/06/21 02:56:59;;;;;;;;;;;;;;;9.05;100.00;98362.72;15279490;19;20407;-56
2022/06/21 03:02:11;;;;;;;2.95;1.60;;;;;;;9.02;100.00;98364.84;15281946;19;19918;-57
2022/06/21 03:07:21;;;;;;;3.58;1.52;;;;;;;8.95;100.00;98364.59;15286039;19;20010;-58
2022/06/21 03:12:30;;;;;;;4.38;1.60;;;;;;;8.91;100.00;98360.56;15282489;19;20484;-59
2022/06/21 03:17:44;;;;;;;3.60;1.75;;;;;;;8.87;100.00;98368.09;15283277;19;20011;-58
2022/06/21 03:22:52;;;;;;;4.38;1.60;;;;;;;8.82;100.00;98359.63;15286980;19;20018;-55
2022/06/21 03:27:59;;;;;;;3.42;1.75;;;;;;;8.78;100.00;98355.53;15281364;19;20057;-56
2022/06/21 03:33:08;;;;;;;3.80;1.65;;;;;;;8.76;100.00;98355.69;15285888;19;20010;-53
2022/06/21 03:38:13;;;;;;;4.78;1.80;;;;;;;8.73;100.00;98363.22;15280802;19;20242;-54
2022/06/21 03:43:26;;;;;;;2.65;1.70;;;;;;;8.70;100.00;98360.81;15284448;19;20508;-54
2022/06/21 03:48:40;;;;;;;4.75;2.40;;;;;;;8.67;100.00;98366.50;15280563;19;20018;-54
2022/06/21 03:53:51;;;;;;;4.13;2.10;;;;;;;8.62;100.00;98372.31;15281683;19;20142;-58
2022/06/21 03:59:04;;;;;;;4.25;1.90;;;;;;;8.62;100.00;98375.00;15282389;19;20018;-55
2022/06/21 04:04:18;;;;;;;4.30;1.92;;;;;;;8.61;100.00;98368.81;15279647;19;20022;-56
2022/06/21 04:09:31;;;;;;;7.03;2.10;;;;;;;8.62;100.00;98385.75;15274384;19;20010;-57
2022/06/21 04:14:42;;;;;;;3.15;1.95;;;;;;;8.66;100.00;98388.97;15280129;19;20010;-55
2022/06/21 04:19:55;;;;;;;5.60;2.20;;;;;;;8.69;100.00;98396.75;15274994;19;20482;-52
2022/06/21 04:25:05;;;;;;;4.63;1.80;;;;;;;8.74;100.00;98397.16;15280131;19;20647;-59
2022/06/21 04:30:15;;;;;;;2.87;1.77;;;;;;;8.79;100.00;98394.84;15278610;19;20011;-57
2022/06/21 04:35:28;;;;;;;4.97;2.13;;;;;;;8.87;100.00;98402.16;15277787;19;20698;-57
2022/06/21 04:40:39;;;;;;;4.70;1.90;;;;;;;8.93;100.00;98398.88;15276272;19;20018;-60
2022/06/21 04:45:51;;;;;;;4.03;2.17;;;;;;;9.02;100.00;98395.28;15279128;19;20760;-56
2022/06/21 04:51:05;;;;;;;5.35;2.10;;;;;;;9.11;100.00;98401.59;15272110;19;20046;-56
2022/06/21 04:56:15;;;;;;;5.50;2.08;;;;;;;9.22;100.00;98406.72;15276758;19;20015;-58
2022/06/21 05:01:33;;;;;;;4.45;2.10;;;;;;;9.32;100.00;98401.25;15285131;19;20011;-59
2022/06/21 05:06:43;;;;;;;5.80;1.95;;;;;;;9.42;100.00;98409.25;15296906;19;20078;-55
2022/06/21 05:11:53;;;;;;;4.10;1.75;;;;;;;9.54;100.00;98394.56;15274763;19;20475;-58
2022/06/21 05:16:58;;;;;;;3.80;2.30;;;;;;;9.67;100.00;98399.53;15279024;19;20019;-58
2022/06/21 05:22:15;;;;;;;4.68;2.00;;;;;;;9.80;100.00;98399.16;15284989;19;20012;-57
2022/06/21 05:27:25;;;;;;;4.10;1.50;;;;;;;9.91;100.00;98406.09;15274818;19;20369;-56
2022/06/21 05:32:36;;;;;;;5.75;1.95;;;;;;;10.05;100.00;98396.63;15276852;19;20010;-59
2022/06/21 05:37:54;;;;;;;5.10;1.63;;;;;;;10.22;100.00;98385.94;15271993;19;20015;-61
2022/06/21 05:42:59;;;;;;;4.35;1.70;;;;;;;10.39;100.00;98398.53;15269509;19;20018;-56
2022/06/21 05:48:09;;;;;;;2.95;1.95;;;;;;;10.54;100.00;98403.28;15275915;19;20036;-56
2022/06/21 05:53:32;;;;;;;4.93;1.90;;;;;;;10.69;100.00;98409.75;15269847;19;20018;-61
2022/06/21 05:58:43;;;;;;;5.43;1.75;;;;;;;10.84;100.00;98401.06;15276280;19;20106;-54
2022/06/21 06:03:54;;;;;;;6.47;1.63;;;;;;;11.05;100.00;98377.19;15275407;19;20454;-57
2022/06/21 06:09:08;;;;;;;4.30;1.48;;;;;;;11.26;100.00;98381.25;15275902;19;20376;-59
2022/06/21 06:14:13;;;;;;;3.17;1.45;;;;;;;11.46;100.00;98360.22;15273949;19;20014;-58
2022/06/21 06:19:22;;;;;;;4.75;1.50;;;;;;;11.68;100.00;98365.94;15271081;19;20471;-60
2022/06/21 06:24:35;;;;;;;4.60;1.50;;;;;;;11.85;100.00;98374.84;15269093;19;20019;-61
2022/06/21 06:29:47;;;;;;;4.57;1.27;;;;;;;12.05;100.00;98375.38;15265291;19;20014;-61
2022/06/21 06:34:55;;;;;;;4.28;1.48;;;;;;;12.24;100.00;98368.75;15269106;19;20014;-61
2022/06/21 06:45:40;;;;;;;4.50;1.40;;;;;;;12.63;100.00;98384.16;15266192;19;20435;-62
2022/06/21 06:50:48;;;;;;;5.20;1.27;;;;;;;12.81;100.00;98383.03;15267832;19;20821;-61
2022/06/21 06:55:59;;;;;;;4.60;1.40;;;;;;;12.99;100.00;98384.66;15279264;19;20022;-63
2022/06/21 07:01:13;;;;;;;3.03;1.20;;;;;;;13.20;100.00;98376.72;15280557;19;20033;-62
2022/06/21 07:06:23;;;;;;;3.65;1.20;;;;;;;13.41;100.00;98396.91;15275373;19;20018;-58
2022/06/21 07:11:33;;;;;;;2.88;1.38;;;;;;;13.53;100.00;98400.88;15268471;19;20368;-58
2022/06/21 07:16:42;;;;;;;4.38;1.38;;;;;;;13.73;100.00;98392.25;15284486;19;20006;-58
2022/06/21 07:21:47;;;;;;;4.80;1.13;;;;;;;13.97;100.00;98398.47;15274975;19;20085;-60
2022/06/21 07:26:57;;;;;;;5.78;1.33;;;;;;;14.25;100.00;98397.88;15285248;19;20046;-59
2022/06/21 07:32:10;;;;;;;3.30;1.20;;;;;;;14.25;100.00;98378.91;15277991;19;20011;-58
2022/06/21 07:37:20;;;;;;;4.00;1.20;;;;;;;14.16;100.00;98380.84;15285877;19;20049;-58
2022/06/21 07:42:31;;;;;;;2.80;1.10;;;;;;;14.40;100.00;98387.03;15281813;19;20022;-58
2022/06/21 07:47:47;;;;;;;3.65;1.00;;;;;;;14.69;100.00;98383.50;15282493;19;20022;-58
2022/06/21 07:52:58;;;;;;;4.25;1.13;;;;;;;14.93;100.00;98389.63;15274551;19;20463;-59
2022/06/21 07:58:21;;;;;;;1.92;0.77;;;;;;;15.05;100.00;98379.13;15281505;19;20050;-59
2022/06/21 08:08:58;;;;;;;3.03;1.00;;;;;;;14.75;100.00;98390.03;15282461;19;20590;-59
2022/06/21 08:14:04;;;;;;;4.68;1.00;;;;;;;14.79;100.00;98392.16;15283732;19;20031;-60
2022/06/21 08:19:16;;;;;;;2.53;0.90;;;;;;;14.92;100.00;98391.50;15280407;19;20388;-59
2022/06/21 08:24:27;;;;;;;3.42;0.90;;;;;;;15.07;100.00;98391.47;15277391;19;20519;-59
2022/06/21 08:29:38;;;;;;;1.70;0.70;;;;;;;15.29;100.00;98379.81;15280087;19;20015;-59
2022/06/21 08:34:50;;;;;;;1.80;0.65;;;;;;;15.35;100.00;98381.75;15276468;19;20029;-60
2022/06/21 08:39:59;;;;;;;;;;;;;;;15.54;100.00;98377.53;15279828;19;20468;-59
2022/06/21 08:45:43;;;;;;;3.05;0.70;;;;;;;15.50;100.00;98370.81;15279183;19;19915;-58
2022/06/21 08:51:08;;;;;;;2.38;0.88;;;;;;;15.69;100.00;98356.59;15275600;19;20015;-59
2022/06/21 08:56:20;;;;;;;3.10;1.00;;;;;;;15.88;100.00;98365.13;15272485;19;20014;-59
2022/06/21 09:01:31;;;;;;;2.53;0.90;;;;;;;15.84;100.00;98356.53;15278766;19;20011;-61
2022/06/21 09:06:56;;;;;;;4.97;1.00;;;;;;;15.94;100.00;98349.91;15278411;19;20031;-60
2022/06/21 09:12:14;;;;;;;5.10;1.08;;;;;;;16.11;100.00;98355.88;15277535;19;20023;-60
2022/06/21 09:17:35;;;;;;;1.83;0.80;;;;;;;16.15;100.00;98355.28;15274809;19;20011;-60
2022/06/21 09:23:02;;;;;;;;;;;;;;;16.17;100.00;98357.78;15281135;19;20079;-57
2022/06/21 09:28:13;;;;;;;2.78;0.98;;;;;;;16.35;100.00;98345.56;15270780;19;19915;-60
2022/06/21 09:39:17;;;;;;;2.33;0.75;;;;;;;16.81;100.00;98349.56;15275022;19;19995;-60
2022/06/21 09:44:29;;;;;;;1.63;0.70;;;;;;;16.85;100.00;98354.38;15277598;19;20026;-60
2022/06/21 09:49:47;;;;;;;4.47;0.70;;;;;;;17.07;100.00;98349.66;15274714;19;20042;-59
2022/06/21 09:55:13;;;;;;;1.80;0.80;;;;;;;17.06;100.00;98358.03;15276131;19;20390;-59
2022/06/21 10:00:22;;;;;;;;;;;;;;;17.21;100.00;98347.81;15270173;19;20435;-60
2022/06/21 10:05:38;;;;;;;1.33;0.50;;;;;;;17.31;100.00;98338.41;15274245;19;20015;-56
2022/06/21 10:10:57;;;;;;;1.80;0.65;;;;;;;17.36;100.00;98335.88;15274625;19;20020;-59
2022/06/21 10:22:03;;;;;;;1.23;0.55;;;;;;;17.73;92.13;98328.16;15272232;19;20010;-59
2022/06/21 10:27:43;;;;;;;0.93;0.50;;;;;;;17.72;86.20;98321.03;15284249;19;20471;-56
2022/06/21 10:33:10;;;;;;;2.05;0.80;;;;;;;17.77;76.76;98313.06;15280879;19;20047;-59
2022/06/21 10:38:41;;;;;;;0.75;0.50;;;;;;;17.94;95.58;98316.19;15289391;19;20280;-59
2022/06/21 10:44:19;;;;;;;1.17;0.50;;;;;;;18.34;92.26;98304.41;15287667;19;20014;-60
2022/06/21 10:49:56;;;;;;;1.98;0.50;;;;;;;18.28;75.85;98314.28;15286774;19;20025;-58
2022/06/21 10:57:09;;;;;;;1.00;0.50;;;;;;;18.36;80.01;98313.22;15287205;19;20712;-54
2022/06/21 11:01:31;;;;;;;3.58;0.57;;;;;;;18.57;72.86;98300.31;15282065;19;20087;-63
2022/06/21 11:06:48;;;;;;;1.63;0.50;;;;;;;18.57;66.47;98297.59;15279360;19;20538;-58
2022/06/21 11:11:57;;;;;;;0.70;0.40;;;;;;;18.84;70.64;98281.94;15280216;19;20026;-60
2022/06/21 11:22:56;;;;;;;0.85;0.50;;;;;;;19.35;69.85;98263.75;15287190;19;19979;-60
2022/06/21 11:28:15;;;;;;;1.70;0.50;;;;;;;19.22;56.37;98256.53;15284092;19;20018;-59
2022/06/21 11:33:32;;;;;;;2.42;0.30;;;;;;;19.45;64.41;98244.16;15283980;19;20007;-59
2022/06/21 11:38:54;;;;;;;1.17;0.45;;;;;;;19.58;58.06;98232.25;15275519;19;20422;-59
2022/06/21 11:44:12;;;;;;;0.98;0.45;;;;;;;19.79;55.65;98219.25;15286306;19;20499;-58
2022/06/21 11:49:38;;;;;;;0.80;0.40;;;;;;;20.18;58.76;98214.41;15276234;19;20518;-63
2022/06/21 11:54:56;;;;;;;3.75;0.38;;;;;;;20.54;61.98;98195.44;15284692;19;20014;-58
2022/06/21 12:00:07;;;;;;;2.15;0.47;;;;;;;20.73;60.64;98188.03;15281072;19;20010;-58
2022/06/21 12:05:29;;;;;;;1.00;0.40;;;;;;;20.89;60.42;98192.84;15284397;19;20026;-59
2022/06/21 12:10:50;;;;;;;3.25;0.50;;;;;;;21.20;54.12;98199.13;15273885;19;20022;-58
2022/06/21 12:16:04;;;;;;;0.93;0.40;;;;;;;21.56;58.64;98201.88;15282989;19;20098;-58
2022/06/21 12:21:14;;;;;;;1.42;0.50;;;;;;;21.72;53.46;98199.53;15271955;19;20019;-57
2022/06/21 12:26:25;;;;;;;1.35;0.47;;;;;;;21.86;56.09;98198.19;15277221;19;20054;-58
2022/06/21 12:31:33;;;;;;;0.65;0.40;;;;;;;22.19;52.76;98193.09;15273663;19;20035;-58
2022/06/21 12:36:48;;;;;;;1.35;0.60;;;;;;;22.35;54.27;98195.09;15276958;19;20019;-56
2022/06/21 12:42:09;;;;;;;1.45;0.57;;;;;;;22.71;50.90;98186.72;15267424;19;20691;-58
2022/06/21 12:47:32;;;;;;;1.47;0.40;;;;;;;22.53;45.18;98190.50;15279690;19;20018;-58
2022/06/21 12:52:47;;;;;;;0.75;0.40;;;;;;;22.76;51.58;98189.59;15277692;19;20018;-58
2022/06/21 12:58:11;;;;;;;0.40;0.30;;;;;;;23.07;51.50;98182.72;15277249;19;20358;-58
2022/06/21 13:03:56;;;;;;;1.45;0.50;;;;;;;23.18;46.17;98167.22;15278625;19;20011;-58
2022/06/21 13:09:39;;;;;;;1.55;0.52;;;;;;;23.28;48.88;98166.59;15270748;19;20019;-64
2022/06/21 13:15:03;;;;;;;0.88;0.40;;;;;;;23.12;49.13;98161.91;15264527;19;20007;-63
2022/06/21 13:20:22;;;;;;;2.03;0.50;;;;;;;23.13;48.74;98171.81;15279822;19;20014;-65
2022/06/21 13:25:55;;;;;;;0.80;0.40;;;;;;;23.37;48.13;98159.59;15276035;19;20475;-64
2022/06/21 13:31:07;;;;;;;2.25;0.50;;;;;;;23.81;49.46;98131.34;15278874;19;20652;-66
2022/06/21 13:36:17;;;;;;;1.30;0.50;;;;;;;24.11;50.07;98129.25;15281106;19;20010;-65
2022/06/21 13:47:16;;;;;;;1.30;0.52;;;;;;;24.28;45.94;98118.16;15267628;19;20542;-65
2022/06/21 13:52:27;;;;;;;2.55;0.77;;;;;;;24.47;48.39;98104.88;15275339;19;20014;-67
2022/06/21 13:58:04;;;;;;;2.15;0.45;;;;;;;24.18;47.57;98115.28;15271163;19;20511;-65
2022/06/21 14:03:29;;;;;;;2.33;0.52;;;;;;;23.99;44.52;98101.88;15276499;19;20018;-65
2022/06/21 14:08:40;;;;;;;2.35;0.50;;;;;;;23.55;44.84;98097.16;15276844;19;20026;-66
2022/06/21 14:13:52;;;;;;;1.75;0.60;;;;;;;23.78;49.79;98084.25;15275507;19;20022;-65
2022/06/21 14:19:04;;;;;;;1.73;0.30;;;;;;;24.06;50.19;98083.25;15267987;19;20017;-65
2022/06/21 14:24:17;;;;;;;0.40;0.40;;;;;;;24.50;46.50;98079.56;15277012;19;20644;-66
2022/06/21 14:29:29;;;;;;;1.00;0.50;;;;;;;24.51;47.66;98075.72;15275322;19;20058;-69
2022/06/21 14:34:44;;;;;;;1.17;0.50;;;;;;;24.70;47.00;98073.44;15270657;19;20014;-68
2022/06/21 14:39:54;;;;;;;1.33;0.50;;;;;;;24.96;45.94;98073.63;15275943;19;20010;-66
2022/06/21 14:45:08;;;;;;;1.23;0.40;;;;;;;25.72;47.23;98057.84;15276920;19;20015;-66
2022/06/21 14:50:25;;;;;;;1.60;0.60;;;;;;;26.43;45.70;98074.91;15267313;19;20466;-68
2022/06/21 14:55:45;;;;;;;3.20;0.53;;;;;;;26.69;41.53;98064.72;15276276;19;20018;-65
2022/06/21 15:01:26;;;;;;;1.73;0.40;;;;;;;26.79;41.05;98071.38;15271192;19;21004;-66
2022/06/21 15:06:37;;;;;;;2.47;0.50;;;;;;;26.64;42.16;98059.19;15266104;19;20010;-63
2022/06/21 15:12:00;;;;;;;;;;;;;;;26.62;38.81;98053.13;15267858;19;20010;-63
2022/06/21 15:17:14;;;;;;;0.95;0.40;;;;;;;27.03;39.73;98047.59;15287019;19;19923;-64
2022/06/21 15:22:36;;;;;;;0.95;0.30;;;;;;;27.53;38.72;98042.22;15274181;19;20078;-62
2022/06/21 15:27:47;;;;;;;0.80;0.40;;;;;;;27.88;41.77;98039.59;15284593;19;20031;-61
2022/06/21 15:32:59;;;;;;;0.95;0.50;;;;;;;28.28;40.51;98021.09;15283576;19;20018;-60
2022/06/21 15:38:09;;;;;;;3.83;0.50;;;;;;;28.30;40.11;98002.25;15279136;19;20019;-64
2022/06/21 15:43:29;;;;;;;0.88;0.50;;;;;;;28.71;39.95;98020.50;15288545;19;20011;-65
2022/06/21 15:54:18;;;;;;;4.57;0.40;;;;;;;28.97;36.24;98000.88;15285079;19;20022;-63
2022/06/21 15:59:37;;;;;;;1.20;0.32;;;;;;;29.05;36.72;98004.97;15284128;19;20053;-61
2022/06/21 16:04:57;;;;;;;0.70;0.30;;;;;;;29.02;36.79;98005.56;15291414;19;20098;-55
2022/06/21 16:10:06;;;;;;;;;;;;;;;28.95;33.20;98003.13;15277790;19;20019;-58
2022/06/21 16:15:20;;;;;;;0.88;0.30;;;;;;;28.91;37.94;98013.97;15278147;19;19926;-59
2022/06/21 16:20:37;;;;;;;2.28;0.25;;;;;;;28.83;33.83;98006.31;15282947;19;20474;-58
2022/06/21 16:25:54;;;;;;;1.08;0.30;;;;;;;28.16;35.50;97998.50;15281454;19;20442;-57
2022/06/21 16:36:32;;;;;;;2.35;0.50;;;;;;;26.45;37.81;97985.16;15282635;19;20006;-61
2022/06/21 16:47:19;;;;;;;2.67;0.40;;;;;;;25.40;39.11;97987.06;15282584;19;20013;-61
2022/06/21 16:52:32;;;;;;;1.70;0.38;;;;;;;25.09;39.99;97989.69;15282484;19;20010;-60
2022/06/21 16:57:46;;;;;;;0.80;0.50;;;;;;;24.99;39.05;97997.91;15281632;19;20034;-61
2022/06/21 17:02:52;;;;;;;1.17;0.45;;;;;;;25.50;39.88;97983.56;15270107;19;20022;-59
2022/06/21 17:08:06;;;;;;;0.90;0.40;;;;;;;25.72;39.10;97975.06;15275466;19;20011;-61
2022/06/21 17:13:17;;;;;;;3.55;0.50;;;;;;;26.23;37.47;97968.84;15270293;19;20275;-60
2022/06/21 17:18:26;;;;;;;0.90;0.40;;;;;;;26.48;38.27;97972.72;15276816;19;20026;-59
2022/06/21 17:23:57;;;;;;;0.75;0.30;;;;;;;26.36;38.06;97959.19;15283682;19;20034;-64
2022/06/21 17:29:07;;;;;;;1.35;0.50;;;;;;;26.06;39.08;97951.69;15279197;19;20014;-64
2022/06/21 17:34:24;;;;;;;0.85;0.30;;;;;;;26.01;37.99;97955.28;15267648;19;20018;-66
2022/06/21 17:39:36;;;;;;;1.75;0.43;;;;;;;25.67;39.54;97951.06;15277672;19;20134;-65
2022/06/21 17:44:49;;;;;;;0.98;0.40;;;;;;;25.69;40.35;97953.56;15270820;19;20027;-66
2022/06/21 17:49:59;;;;;;;1.45;0.43;;;;;;;25.52;39.64;97932.53;15276087;19;20011;-66
2022/06/21 17:55:09;;;;;;;1.52;0.47;;;;;;;25.20;40.37;97933.50;15272749;19;20014;-59
2022/06/21 18:00:19;;;;;;;1.00;0.50;;;;;;;25.09;41.00;97934.56;15276505;19;20438;-65
2022/06/21 18:05:31;;;;;;;0.95;0.40;;;;;;;25.17;41.15;97934.03;15270109;19;20046;-65
2022/06/21 18:10:48;;;;;;;2.85;0.40;;;;;;;25.16;41.65;97940.66;15275109;19;20018;-64
2022/06/21 18:16:07;;;;;;;0.60;0.40;;;;;;;25.31;42.12;97955.59;15270757;19;20026;-67
2022/06/21 18:21:18;;;;;;;1.23;0.40;;;;;;;25.32;42.83;97965.53;15266545;19;20015;-66
2022/06/21 18:26:28;;;;;;;1.55;0.50;;;;;;;25.19;43.29;97962.19;15270318;19;20014;-63
2022/06/21 18:31:53;;;;;;;0.90;0.35;;;;;;;25.09;41.98;97962.13;15239700;19;20018;-63
2022/06/21 18:37:06;;;;;;;1.02;0.30;;;;;;;24.58;43.33;97957.91;15268158;19;20014;-62
2022/06/21 18:42:29;;;;;;;1.55;0.70;;;;;;;24.06;42.96;97961.31;15268897;19;20043;-62
2022/06/21 18:47:55;;;;;;;2.08;0.30;;;;;;;23.34;44.30;97967.69;15275407;19;20026;-62
2022/06/21 18:53:13;;;;;;;1.75;0.40;;;;;;;22.73;45.65;97976.72;15269250;19;20014;-62
2022/06/21 18:58:37;;;;;;;1.95;0.45;;;;;;;22.19;46.87;97979.94;15282714;19;20467;-62
2022/06/21 19:03:49;;;;;;;1.42;0.57;;;;;;;21.81;48.55;97979.56;15287914;19;20011;-62
2022/06/21 19:09:18;;;;;;;0.45;0.40;;;;;;;21.40;49.86;97975.97;15275613;19;20026;-55
2022/06/21 19:14:30;;;;;;;2.67;0.70;;;;;;;21.03;51.66;97976.28;15273233;19;20014;-55
2022/06/21 19:20:07;;;;;;;0.93;0.60;;;;;;;20.77;52.67;97981.19;15285641;19;20085;-58
2022/06/21 19:25:48;;;;;;;1.05;0.40;;;;;;;20.58;54.56;97991.41;15273395;19;20018;-56
2022/06/21 19:31:11;;;;;;;2.70;0.50;;;;;;;20.36;55.47;97985.66;15281060;19;20033;-56
2022/06/21 19:36:42;;;;;;;2.50;0.70;;;;;;;20.21;58.73;97989.69;15279905;19;20010;-52
2022/06/21 19:41:56;;;;;;;3.45;2.92;;;;;;;20.06;60.27;97992.00;15273737;19;20384;-52
2022/06/21 19:47:06;;;;;;;1.05;0.60;;;;;;;19.95;61.28;97980.00;15285247;19;20043;-58
2022/06/21 19:52:19;;;;;;;2.30;0.70;;;;;;;19.87;62.55;97981.16;15282260;19;20018;-53
2022/06/21 19:57:29;;;;;;;1.23;0.40;;;;;;;19.81;64.90;97971.94;15275658;19;20019;-54
2022/06/21 20:02:42;;;;;;;2.75;0.65;;;;;;;19.72;66.03;97973.34;15284206;19;20014;-55
2022/06/21 20:08:13;;;;;;;1.15;0.40;;;;;;;19.65;67.97;97961.66;15286917;19;20117;-54
2022/06/21 20:13:50;;;;;;;0.95;0.40;;;;;;;19.59;68.94;97968.88;15272595;19;20029;-51
2022/06/21 20:19:08;;;;;;;1.85;0.50;;;;;;;19.51;69.17;97961.84;15284959;19;20350;-59
2022/06/21 20:24:28;;;;;;;0.85;0.50;;;;;;;19.42;70.52;97960.50;15284845;19;20023;-52
2022/06/21 20:29:43;;;;;;;0.88;0.40;;;;;;;19.29;70.21;97949.72;14953025;19;10001053;-56
2022/06/21 20:34:55;;;;;;;2.10;0.60;;;;;;;19.18;74.18;97956.81;15280765;19;20269;-49
2022/06/21 20:40:06;;;;;;;0.73;0.50;;;;;;;19.03;79.54;97957.19;15282601;19;20029;-51
2022/06/21 20:45:16;;;;;;;1.77;0.60;;;;;;;18.83;83.81;97962.84;15274455;19;20006;-54
2022/06/21 20:50:48;;;;;;;1.65;0.70;;;;;;;18.66;85.26;97963.41;15278259;19;20018;-57
2022/06/21 20:56:25;;;;;;;2.38;0.70;;;;;;;18.55;88.03;97961.44;15278792;19;20018;-50
2022/06/21 21:01:42;;;;;;;2.65;0.52;;;;;;;18.38;90.38;97956.56;15270441;19;20049;-53
2022/06/21 21:06:52;;;;;;;3.70;0.50;;;;;;;18.32;92.89;97951.97;15281404;19;20013;-50
2022/06/21 21:12:03;;;;;;;0.90;0.40;;;;;;;18.26;94.19;97953.72;15277702;19;20026;-58
2022/06/21 21:17:15;;;;;;;2.55;0.75;;;;;;;18.23;94.89;97953.31;15271873;19;20014;-52
2022/06/21 21:22:27;;;;;;;1.98;0.80;;;;;;;18.22;96.95;97941.59;15276084;19;20033;-50
2022/06/21 21:27:44;;;;;;;1.33;0.50;;;;;;;18.23;98.29;97942.41;15277912;19;20064;-57
2022/06/21 21:33:13;;;;;;;1.50;0.57;;;;;;;18.25;99.54;97953.94;15266422;19;20714;-54
2022/06/21 21:38:31;;;;;;;0.98;0.60;;;;;;;18.24;98.54;97955.81;15275673;19;20010;-54
2022/06/21 21:43:42;;;;;;;0.75;0.50;;;;;;;18.22;100.00;97962.56;15276465;19;20019;-51
2022/06/21 21:48:51;;;;;;;1.55;0.50;;;;;;;18.18;100.00;97967.63;15273769;19;20022;-56
2022/06/21 21:54:03;;;;;;;1.33;0.60;;;;;;;18.02;100.00;97972.56;15274033;19;20704;-50
2022/06/21 21:59:17;;;;;;;1.48;0.47;;;;;;;17.96;100.00;97978.88;15275537;19;20353;-50
2022/06/21 22:04:33;;;;;;;1.17;0.60;;;;;;;17.94;100.00;97991.88;15269278;19;20088;-51
2022/06/21 22:09:54;;;;;;;0.93;0.40;;;;;;;17.87;100.00;97994.63;15274933;19;20074;-50
2022/06/21 22:15:13;;;;;;;1.92;0.40;;;;;;;17.80;99.58;97988.41;15274777;19;20709;-49
2022/06/21 22:20:32;;;;;;;0.98;0.55;;;;;;;17.78;97.21;97995.09;15275173;19;20435;-54
2022/06/21 22:25:39;;;;;;;1.33;0.57;;;;;;;17.77;97.87;97988.84;15284403;19;20006;-50
2022/06/21 22:30:48;;;;;;;1.80;0.60;;;;;;;17.79;97.86;97983.16;15289521;19;20014;-56
2022/06/21 22:35:55;;;;;;;3.97;0.60;;;;;;;17.79;100.00;97980.44;15280963;19;20067;-50
2022/06/21 22:41:01;;;;;;;1.10;0.60;;;;;;;17.78;99.09;97985.06;15287297;19;20039;-58
2022/06/21 22:46:15;;;;;;;2.50;0.60;;;;;;;17.77;98.78;97983.38;15291065;19;20014;-52
2022/06/21 22:51:49;;;;;;;1.23;0.60;;;;;;;17.78;100.00;97979.63;15288467;19;20035;-54
2022/06/21 22:56:58;;;;;;;2.35;0.70;;;;;;;17.79;100.00;97981.28;15280344;19;20365;-53
2022/06/21 23:02:16;;;;;;;1.60;0.70;;;;;;;17.77;100.00;97977.09;15284725;19;20388;-53
2022/06/21 23:07:32;;;;;;;0.65;0.50;;;;;;;17.79;100.00;97983.16;15284683;19;20025;-54
2022/06/21 23:12:38;;;;;;;1.88;0.70;;;;;;;17.76;100.00;97980.91;15283694;19;20039;-53
2022/06/21 23:17:45;;;;;;;0.93;0.50;;;;;;;17.74;100.00;97981.09;15287731;19;20018;-53
2022/06/21 23:22:53;;;;;;;1.48;0.57;;;;;;;17.73;100.00;97992.22;15286146;19;20026;-50
2022/06/21 23:28:01;;;;;;;0.88;0.55;;;;;;;17.69;98.96;97983.66;15282341;19;20647;-52
2022/06/21 23:33:18;;;;;;;1.60;0.60;;;;;;;17.69;96.49;97987.19;15279248;19;20024;-52
2022/06/21 23:38:30;;;;;;;1.80;0.68;;;;;;;17.71;96.64;97984.25;15288443;19;20506;-55
2022/06/21 23:43:40;;;;;;;0.95;0.50;;;;;;;17.71;99.04;97978.78;15281864;19;20038;-50
2022/06/21 23:48:49;;;;;;;0.98;0.50;;;;;;;17.68;100.00;97976.53;15287977;19;20388;-50
2022/06/21 23:53:56;;;;;;;1.35;0.60;;;;;;;17.70;99.96;97977.13;15285461;19;20360;-50
2022/06/21 23:59:01;;;;;;;1.52;0.60;;;;;;;17.67;100.00;97964.78;15276213;19;20018;-53
